createdAt,value
2017-11-19T00:00:31.581Z,1003.75
2017-11-19T00:01:12.157Z,1003.72
2017-11-19T00:01:52.716Z,1003.74
2017-11-19T00:02:33.290Z,1003.79
2017-11-19T00:03:13.859Z,1003.72
2017-11-19T00:03:54.427Z,1003.78
2017-11-19T00:04:35.001Z,1003.76
2017-11-19T00:05:15.596Z,1003.73
2017-11-19T00:05:56.131Z,1003.78
2017-11-19T00:06:36.716Z,1003.74
2017-11-19T00:07:17.285Z,1003.7
2017-11-19T00:07:57.873Z,1003.72
2017-11-19T00:08:38.426Z,1003.76
2017-11-19T00:09:19.006Z,1003.74
2017-11-19T00:09:59.577Z,1003.74
2017-11-19T00:10:40.137Z,1003.74
2017-11-19T00:11:20.742Z,1003.83
2017-11-19T00:12:01.309Z,1003.7
2017-11-19T00:12:41.968Z,1003.69
2017-11-19T00:13:22.534Z,1003.7
2017-11-19T00:14:03.117Z,1003.72
2017-11-19T00:14:43.692Z,1003.73
2017-11-19T00:15:24.257Z,1003.77
2017-11-19T00:16:04.839Z,1003.67
2017-11-19T00:16:45.433Z,1003.68
2017-11-19T00:17:26.009Z,1003.76
2017-11-19T00:18:06.625Z,1003.66
2017-11-19T00:18:47.202Z,1003.69
2017-11-19T00:19:27.776Z,1003.69
2017-11-19T00:20:08.378Z,1003.72
2017-11-19T00:20:48.962Z,1003.65
2017-11-19T00:21:29.564Z,1003.7
2017-11-19T00:22:10.147Z,1003.69
2017-11-19T00:22:50.713Z,1003.65
2017-11-19T00:23:31.508Z,1003.65
2017-11-19T00:24:12.043Z,1003.64
2017-11-19T00:24:52.655Z,1003.7
2017-11-19T00:25:33.354Z,1003.69
2017-11-19T00:26:13.924Z,1003.67
2017-11-19T00:26:54.570Z,1003.65
2017-11-19T00:27:35.163Z,1003.65
2017-11-19T00:28:15.748Z,1003.63
2017-11-19T00:28:56.307Z,1003.68
2017-11-19T00:29:36.903Z,1003.61
2017-11-19T00:30:17.504Z,1003.65
2017-11-19T00:30:58.133Z,1003.62
2017-11-19T00:31:38.769Z,1003.65
2017-11-19T00:32:19.341Z,1003.66
2017-11-19T00:33:00.029Z,1003.57
2017-11-19T00:33:40.751Z,1003.57
2017-11-19T00:34:21.468Z,1003.59
2017-11-19T00:35:02.131Z,1003.61
2017-11-19T00:35:42.950Z,1003.55
2017-11-19T00:36:23.599Z,1003.61
2017-11-19T00:37:04.210Z,1003.5
2017-11-19T00:37:44.843Z,1003.56
2017-11-19T00:38:25.523Z,1003.53
2017-11-19T00:39:06.236Z,1003.47
2017-11-19T00:39:46.915Z,1003.56
2017-11-19T00:40:27.508Z,1003.52
2017-11-19T00:41:08.136Z,1003.48
2017-11-19T00:41:48.706Z,1003.52
2017-11-19T00:42:29.354Z,1003.46
2017-11-19T00:43:10.008Z,1003.48
2017-11-19T00:43:50.686Z,1003.48
2017-11-19T00:44:31.432Z,1003.46
2017-11-19T00:45:12.006Z,1003.44
2017-11-19T00:45:52.704Z,1003.43
2017-11-19T00:46:33.295Z,1003.46
2017-11-19T00:47:13.909Z,1003.41
2017-11-19T00:47:54.493Z,1003.39
2017-11-19T00:48:35.078Z,1003.38
2017-11-19T00:49:15.657Z,1003.35
2017-11-19T00:49:56.294Z,1003.34
2017-11-19T00:50:36.853Z,1003.34
2017-11-19T00:51:17.446Z,1003.34
2017-11-19T00:51:58.035Z,1003.36
2017-11-19T00:52:38.595Z,1003.33
2017-11-19T00:53:19.175Z,1003.31
2017-11-19T00:53:59.742Z,1003.32
2017-11-19T00:54:40.342Z,1003.34
2017-11-19T00:55:20.929Z,1003.41
2017-11-19T00:56:01.547Z,1003.4
2017-11-19T00:56:42.177Z,1003.38
2017-11-19T00:57:22.798Z,1003.35
2017-11-19T00:58:03.454Z,1003.36
2017-11-19T00:58:44.036Z,1003.38
2017-11-19T00:59:24.656Z,1003.34
2017-11-19T01:00:05.264Z,1003.36
2017-11-19T01:00:45.849Z,1003.34
2017-11-19T01:01:26.465Z,1003.29
2017-11-19T01:02:07.067Z,1003.35
2017-11-19T01:02:47.666Z,1003.36
2017-11-19T01:03:28.268Z,1003.36
2017-11-19T01:04:08.850Z,1003.35
2017-11-19T01:04:49.444Z,1003.36
2017-11-19T01:05:30.057Z,1003.34
2017-11-19T01:06:10.666Z,1003.35
2017-11-19T01:06:51.271Z,1003.35
2017-11-19T01:07:31.961Z,1003.28
2017-11-19T01:08:12.601Z,1003.33
2017-11-19T01:08:53.186Z,1003.24
2017-11-19T01:09:33.795Z,1003.3
2017-11-19T01:10:14.436Z,1003.34
2017-11-19T01:10:55.150Z,1003.33
2017-11-19T01:11:35.702Z,1003.28
2017-11-19T01:12:16.319Z,1003.25
2017-11-19T01:12:57.032Z,1003.27
2017-11-19T01:13:37.650Z,1003.26
2017-11-19T01:14:18.247Z,1003.19
2017-11-19T01:14:58.861Z,1003.2
2017-11-19T01:15:39.441Z,1003.19
2017-11-19T01:16:20.041Z,1003.19
2017-11-19T01:17:00.619Z,1003.17
2017-11-19T01:17:41.688Z,1003.15
2017-11-19T01:18:22.297Z,1003.21
2017-11-19T01:19:02.892Z,1003.13
2017-11-19T01:19:43.457Z,1003.14
2017-11-19T01:20:24.041Z,1003.06
2017-11-19T01:21:04.625Z,1003.08
2017-11-19T01:21:45.207Z,1003.09
2017-11-19T01:22:25.811Z,1003.06
2017-11-19T01:23:06.393Z,1003.02
2017-11-19T01:23:46.995Z,1003.07
2017-11-19T01:24:27.544Z,1003.05
2017-11-19T01:25:08.120Z,1003.05
2017-11-19T01:25:48.684Z,1003.05
2017-11-19T01:26:29.254Z,1003.01
2017-11-19T01:27:09.812Z,1003.02
2017-11-19T01:27:50.422Z,1003.05
2017-11-19T01:28:30.990Z,1002.99
2017-11-19T01:29:11.564Z,1003.03
2017-11-19T01:29:52.130Z,1002.99
2017-11-19T01:30:32.703Z,1002.93
2017-11-19T01:31:13.266Z,1002.98
2017-11-19T01:31:53.835Z,1002.98
2017-11-19T01:32:34.399Z,1002.96
2017-11-19T01:33:14.979Z,1002.92
2017-11-19T01:33:55.570Z,1002.93
2017-11-19T01:34:36.123Z,1002.92
2017-11-19T01:35:16.712Z,1002.92
2017-11-19T01:35:57.303Z,1002.91
2017-11-19T01:36:37.880Z,1002.89
2017-11-19T01:37:18.437Z,1002.9
2017-11-19T01:37:58.994Z,1002.88
2017-11-19T01:38:39.585Z,1002.9
2017-11-19T01:39:20.180Z,1002.85
2017-11-19T01:40:00.735Z,1002.86
2017-11-19T01:40:41.298Z,1002.86
2017-11-19T01:41:21.874Z,1002.87
2017-11-19T01:42:02.437Z,1002.83
2017-11-19T01:42:43.147Z,1002.78
2017-11-19T01:43:23.710Z,1002.83
2017-11-19T01:44:04.294Z,1002.84
2017-11-19T01:44:44.854Z,1002.8
2017-11-19T01:45:25.419Z,1002.8
2017-11-19T01:46:06.005Z,1002.75
2017-11-19T01:46:46.606Z,1002.81
2017-11-19T01:47:27.162Z,1002.74
2017-11-19T01:48:07.760Z,1002.71
2017-11-19T01:48:48.314Z,1002.69
2017-11-19T01:49:28.860Z,1002.64
2017-11-19T01:50:09.436Z,1002.65
2017-11-19T01:50:50.009Z,1002.65
2017-11-19T01:51:30.583Z,1002.71
2017-11-19T01:52:11.169Z,1002.66
2017-11-19T01:52:51.737Z,1002.66
2017-11-19T01:53:32.322Z,1002.62
2017-11-19T01:54:12.916Z,1002.67
2017-11-19T01:54:53.494Z,1002.63
2017-11-19T01:55:34.080Z,1002.67
2017-11-19T01:56:14.655Z,1002.59
2017-11-19T01:56:55.219Z,1002.59
2017-11-19T01:57:35.821Z,1002.53
2017-11-19T01:58:16.378Z,1002.52
2017-11-19T01:58:56.960Z,1002.53
2017-11-19T01:59:37.535Z,1002.51
2017-11-19T02:00:18.123Z,1002.49
2017-11-19T02:00:58.686Z,1002.53
2017-11-19T02:01:39.287Z,1002.51
2017-11-19T02:02:19.865Z,1002.5
2017-11-19T02:03:00.489Z,1002.49
2017-11-19T02:03:41.072Z,1002.49
2017-11-19T02:04:21.631Z,1002.53
2017-11-19T02:05:02.274Z,1002.52
2017-11-19T02:05:42.851Z,1002.52
2017-11-19T02:06:23.435Z,1002.55
2017-11-19T02:07:03.990Z,1002.47
2017-11-19T02:07:44.584Z,1002.47
2017-11-19T02:08:25.145Z,1002.41
2017-11-19T02:09:05.747Z,1002.46
2017-11-19T02:09:46.346Z,1002.47
2017-11-19T02:10:26.917Z,1002.45
2017-11-19T02:11:07.502Z,1002.42
2017-11-19T02:11:48.054Z,1002.48
2017-11-19T02:12:28.639Z,1002.39
2017-11-19T02:13:09.223Z,1002.42
2017-11-19T02:13:49.801Z,1002.38
2017-11-19T02:14:30.361Z,1002.4
2017-11-19T02:15:10.957Z,1002.4
2017-11-19T02:15:51.563Z,1002.41
2017-11-19T02:16:32.155Z,1002.39
2017-11-19T02:17:12.761Z,1002.35
2017-11-19T02:17:53.321Z,1002.42
2017-11-19T02:18:33.911Z,1002.37
2017-11-19T02:19:14.489Z,1002.32
2017-11-19T02:19:55.071Z,1002.38
2017-11-19T02:20:35.661Z,1002.39
2017-11-19T02:21:16.229Z,1002.35
2017-11-19T02:21:56.802Z,1002.4
2017-11-19T02:22:37.365Z,1002.42
2017-11-19T02:23:17.923Z,1002.4
2017-11-19T02:23:58.496Z,1002.45
2017-11-19T02:24:39.068Z,1002.47
2017-11-19T02:25:19.638Z,1002.45
2017-11-19T02:26:00.218Z,1002.45
2017-11-19T02:26:40.770Z,1002.44
2017-11-19T02:27:21.346Z,1002.51
2017-11-19T02:28:01.926Z,1002.48
2017-11-19T02:28:42.535Z,1002.39
2017-11-19T02:29:23.104Z,1002.45
2017-11-19T02:30:03.703Z,1002.46
2017-11-19T02:30:44.299Z,1002.48
2017-11-19T02:31:24.986Z,1002.48
2017-11-19T02:32:05.561Z,1002.51
2017-11-19T02:32:46.115Z,1002.45
2017-11-19T02:33:26.687Z,1002.35
2017-11-19T02:34:07.277Z,1002.38
2017-11-19T02:34:47.830Z,1002.44
2017-11-19T02:35:28.450Z,1002.43
2017-11-19T02:36:09.025Z,1002.45
2017-11-19T02:36:49.591Z,1002.41
2017-11-19T02:37:30.192Z,1002.41
2017-11-19T02:38:10.775Z,1002.41
2017-11-19T02:38:51.342Z,1002.36
2017-11-19T02:39:31.921Z,1002.38
2017-11-19T02:40:12.477Z,1002.41
2017-11-19T02:40:53.029Z,1002.42
2017-11-19T02:41:33.600Z,1002.37
2017-11-19T02:42:14.198Z,1002.35
2017-11-19T02:42:54.732Z,1002.36
2017-11-19T02:43:35.361Z,1002.38
2017-11-19T02:44:15.945Z,1002.23
2017-11-19T02:44:56.558Z,1002.26
2017-11-19T02:45:37.154Z,1002.24
2017-11-19T02:46:17.715Z,1002.19
2017-11-19T02:46:58.328Z,1002.23
2017-11-19T02:47:38.858Z,1002.23
2017-11-19T02:48:19.459Z,1002.2
2017-11-19T02:49:00.021Z,1002.22
2017-11-19T02:49:40.595Z,1002.17
2017-11-19T02:50:21.159Z,1002.19
2017-11-19T02:51:01.748Z,1002.22
2017-11-19T02:51:42.307Z,1002.18
2017-11-19T02:52:22.899Z,1002.21
2017-11-19T02:53:03.460Z,1002.23
2017-11-19T02:53:44.051Z,1002.26
2017-11-19T02:54:24.615Z,1002.12
2017-11-19T02:55:05.223Z,1002.16
2017-11-19T02:55:45.825Z,1002.15
2017-11-19T02:56:26.400Z,1002.12
2017-11-19T02:57:06.983Z,1002.15
2017-11-19T02:57:47.562Z,1002.08
2017-11-19T02:58:28.168Z,1002.08
2017-11-19T02:59:08.722Z,1002.06
2017-11-19T02:59:49.287Z,1002.02
2017-11-19T03:00:29.852Z,1002.03
2017-11-19T03:01:10.435Z,1002.04
2017-11-19T03:01:51.010Z,1002
2017-11-19T03:02:31.584Z,1002.01
2017-11-19T03:03:12.166Z,1002.05
2017-11-19T03:03:52.728Z,1002.01
2017-11-19T03:04:33.285Z,1002.03
2017-11-19T03:05:13.853Z,1002.07
2017-11-19T03:05:54.469Z,1002.1
2017-11-19T03:06:35.096Z,1002.05
2017-11-19T03:07:15.667Z,1002.03
2017-11-19T03:07:56.238Z,1001.99
2017-11-19T03:08:36.809Z,1002.06
2017-11-19T03:09:17.401Z,1002.09
2017-11-19T03:09:57.986Z,1002.03
2017-11-19T03:10:38.570Z,1002.03
2017-11-19T03:11:19.160Z,1002.04
2017-11-19T03:11:59.739Z,1002.02
2017-11-19T03:12:40.363Z,1001.91
2017-11-19T03:13:20.956Z,1001.94
2017-11-19T03:14:01.551Z,1001.89
2017-11-19T03:14:42.119Z,1001.88
2017-11-19T03:15:22.699Z,1001.91
2017-11-19T03:16:03.267Z,1001.86
2017-11-19T03:16:43.825Z,1001.88
2017-11-19T03:17:24.414Z,1001.86
2017-11-19T03:18:05.008Z,1001.81
2017-11-19T03:18:45.591Z,1001.86
2017-11-19T03:19:26.156Z,1001.79
2017-11-19T03:20:06.719Z,1001.81
2017-11-19T03:20:47.313Z,1001.86
2017-11-19T03:21:27.890Z,1001.82
2017-11-19T03:22:08.442Z,1001.82
2017-11-19T03:22:49.016Z,1001.81
2017-11-19T03:23:29.573Z,1001.77
2017-11-19T03:24:10.125Z,1001.78
2017-11-19T03:24:50.681Z,1001.78
2017-11-19T03:25:31.313Z,1001.77
2017-11-19T03:26:11.875Z,1001.79
2017-11-19T03:26:52.443Z,1001.78
2017-11-19T03:27:33.010Z,1001.8
2017-11-19T03:28:13.576Z,1001.79
2017-11-19T03:28:54.169Z,1001.78
2017-11-19T03:29:34.735Z,1001.78
2017-11-19T03:30:15.303Z,1001.79
2017-11-19T03:30:55.882Z,1001.83
2017-11-19T03:31:36.453Z,1001.79
2017-11-19T03:32:17.039Z,1001.83
2017-11-19T03:32:57.652Z,1001.86
2017-11-19T03:33:38.222Z,1001.79
2017-11-19T03:34:18.791Z,1001.79
2017-11-19T03:34:59.359Z,1001.83
2017-11-19T03:35:39.939Z,1001.84
2017-11-19T03:36:20.508Z,1001.89
2017-11-19T03:37:01.074Z,1001.86
2017-11-19T03:37:41.677Z,1001.85
2017-11-19T03:38:22.251Z,1001.9
2017-11-19T03:39:02.837Z,1001.79
2017-11-19T03:39:43.465Z,1001.83
2017-11-19T03:40:24.085Z,1001.76
2017-11-19T03:41:04.646Z,1001.77
2017-11-19T03:41:45.222Z,1001.82
2017-11-19T03:42:25.812Z,1001.82
2017-11-19T03:43:06.393Z,1001.84
2017-11-19T03:43:46.953Z,1001.75
2017-11-19T03:44:27.510Z,1001.77
2017-11-19T03:45:08.073Z,1001.81
2017-11-19T03:45:48.656Z,1001.75
2017-11-19T03:46:29.217Z,1001.78
2017-11-19T03:47:09.785Z,1001.74
2017-11-19T03:47:50.372Z,1001.71
2017-11-19T03:48:30.913Z,1001.72
2017-11-19T03:49:11.482Z,1001.73
2017-11-19T03:49:52.068Z,1001.73
2017-11-19T03:50:32.657Z,1001.72
2017-11-19T03:51:13.209Z,1001.8
2017-11-19T03:51:53.780Z,1001.74
2017-11-19T03:52:34.340Z,1001.73
2017-11-19T03:53:14.928Z,1001.8
2017-11-19T03:53:55.499Z,1001.74
2017-11-19T03:54:36.058Z,1001.7
2017-11-19T03:55:16.615Z,1001.75
2017-11-19T03:55:57.193Z,1001.77
2017-11-19T03:56:37.781Z,1001.73
2017-11-19T03:57:18.378Z,1001.73
2017-11-19T03:57:58.948Z,1001.71
2017-11-19T03:58:39.529Z,1001.77
2017-11-19T03:59:20.120Z,1001.69
2017-11-19T04:00:00.713Z,1001.72
2017-11-19T04:00:41.285Z,1001.69
2017-11-19T04:01:21.866Z,1001.65
2017-11-19T04:02:02.442Z,1001.61
2017-11-19T04:02:42.999Z,1001.64
2017-11-19T04:03:23.580Z,1001.68
2017-11-19T04:04:04.163Z,1001.61
2017-11-19T04:04:44.756Z,1001.62
2017-11-19T04:05:25.303Z,1001.66
2017-11-19T04:06:05.858Z,1001.65
2017-11-19T04:06:46.417Z,1001.65
2017-11-19T04:07:27.001Z,1001.61
2017-11-19T04:08:07.583Z,1001.62
2017-11-19T04:08:48.132Z,1001.58
2017-11-19T04:09:28.704Z,1001.62
2017-11-19T04:10:09.299Z,1001.62
2017-11-19T04:10:49.887Z,1001.64
2017-11-19T04:11:30.472Z,1001.63
2017-11-19T04:12:11.081Z,1001.66
2017-11-19T04:12:51.689Z,1001.58
2017-11-19T04:13:32.259Z,1001.61
2017-11-19T04:14:12.830Z,1001.65
2017-11-19T04:14:53.401Z,1001.68
2017-11-19T04:15:33.980Z,1001.61
2017-11-19T04:16:14.558Z,1001.55
2017-11-19T04:16:55.135Z,1001.6
2017-11-19T04:17:35.748Z,1001.54
2017-11-19T04:18:16.307Z,1001.57
2017-11-19T04:18:56.878Z,1001.54
2017-11-19T04:19:37.452Z,1001.61
2017-11-19T04:20:18.016Z,1001.52
2017-11-19T04:20:58.623Z,1001.52
2017-11-19T04:21:39.224Z,1001.54
2017-11-19T04:22:19.820Z,1001.57
2017-11-19T04:23:00.384Z,1001.52
2017-11-19T04:23:40.943Z,1001.51
2017-11-19T04:24:21.607Z,1001.56
2017-11-19T04:25:02.181Z,1001.52
2017-11-19T04:25:42.748Z,1001.44
2017-11-19T04:26:23.356Z,1001.53
2017-11-19T04:27:03.945Z,1001.48
2017-11-19T04:27:44.513Z,1001.52
2017-11-19T04:28:25.071Z,1001.48
2017-11-19T04:29:05.650Z,1001.47
2017-11-19T04:29:46.269Z,1001.54
2017-11-19T04:30:26.856Z,1001.52
2017-11-19T04:31:07.444Z,1001.48
2017-11-19T04:31:47.998Z,1001.52
2017-11-19T04:32:28.607Z,1001.51
2017-11-19T04:33:09.167Z,1001.48
2017-11-19T04:33:49.735Z,1001.51
2017-11-19T04:34:30.300Z,1001.49
2017-11-19T04:35:10.869Z,1001.45
2017-11-19T04:35:51.440Z,1001.43
2017-11-19T04:36:32.000Z,1001.4
2017-11-19T04:37:12.577Z,1001.32
2017-11-19T04:37:53.190Z,1001.35
2017-11-19T04:38:33.807Z,1001.28
2017-11-19T04:39:14.391Z,1001.38
2017-11-19T04:39:54.982Z,1001.26
2017-11-19T04:40:35.601Z,1001.31
2017-11-19T04:41:16.197Z,1001.26
2017-11-19T04:41:56.793Z,1001.25
2017-11-19T04:42:37.424Z,1001.31
2017-11-19T04:43:17.966Z,1001.28
2017-11-19T04:43:58.564Z,1001.26
2017-11-19T04:44:39.161Z,1001.25
2017-11-19T04:45:19.724Z,1001.27
2017-11-19T04:46:00.291Z,1001.21
2017-11-19T04:46:40.866Z,1001.22
2017-11-19T04:47:21.427Z,1001.22
2017-11-19T04:48:02.001Z,1001.18
2017-11-19T04:48:42.583Z,1001.2
2017-11-19T04:49:23.164Z,1001.19
2017-11-19T04:50:03.741Z,1001.21
2017-11-19T04:50:44.326Z,1001.23
2017-11-19T04:51:24.922Z,1001.18
2017-11-19T04:52:05.499Z,1001.18
2017-11-19T04:52:46.073Z,1001.21
2017-11-19T04:53:26.663Z,1001.14
2017-11-19T04:54:07.230Z,1001.21
2017-11-19T04:54:47.794Z,1001.18
2017-11-19T04:55:28.372Z,1001.23
2017-11-19T04:56:08.948Z,1001.22
2017-11-19T04:56:49.541Z,1001.26
2017-11-19T04:57:30.131Z,1001.19
2017-11-19T04:58:10.720Z,1001.17
2017-11-19T04:58:51.299Z,1001.1
2017-11-19T04:59:31.892Z,1001.13
2017-11-19T05:00:12.471Z,1001.14
2017-11-19T05:00:53.051Z,1001.13
2017-11-19T05:01:33.663Z,1001.11
2017-11-19T05:02:14.250Z,1001.11
2017-11-19T05:02:54.822Z,1001.06
2017-11-19T05:03:35.383Z,1001.05
2017-11-19T05:04:15.961Z,1001.06
2017-11-19T05:04:56.518Z,1001.08
2017-11-19T05:05:37.112Z,1001.05
2017-11-19T05:06:17.682Z,1001.05
2017-11-19T05:06:58.269Z,1001.14
2017-11-19T05:07:38.831Z,1001.11
2017-11-19T05:08:19.387Z,1001.12
2017-11-19T05:08:59.985Z,1001.15
2017-11-19T05:09:40.569Z,1001.15
2017-11-19T05:10:21.185Z,1001.1
2017-11-19T05:11:01.770Z,1001.09
2017-11-19T05:11:42.337Z,1001.03
2017-11-19T05:12:22.938Z,1000.99
2017-11-19T05:13:03.612Z,1001.02
2017-11-19T05:13:44.176Z,1001.01
2017-11-19T05:14:24.802Z,1001.02
2017-11-19T05:15:05.376Z,1000.92
2017-11-19T05:15:45.976Z,1000.93
2017-11-19T05:16:26.538Z,1000.96
2017-11-19T05:17:07.102Z,1000.96
2017-11-19T05:17:47.672Z,1000.86
2017-11-19T05:18:28.252Z,1000.94
2017-11-19T05:19:08.856Z,1000.92
2017-11-19T05:19:49.427Z,1000.92
2017-11-19T05:20:30.009Z,1000.87
2017-11-19T05:21:10.600Z,1000.94
2017-11-19T05:21:51.156Z,1000.88
2017-11-19T05:22:31.717Z,1000.8
2017-11-19T05:23:12.282Z,1000.83
2017-11-19T05:23:52.847Z,1000.84
2017-11-19T05:24:33.425Z,1000.81
2017-11-19T05:25:14.009Z,1000.75
2017-11-19T05:25:54.561Z,1000.73
2017-11-19T05:26:35.126Z,1000.73
2017-11-19T05:27:15.699Z,1000.69
2017-11-19T05:27:56.264Z,1000.73
2017-11-19T05:28:36.834Z,1000.7
2017-11-19T05:29:17.422Z,1000.61
2017-11-19T05:29:57.995Z,1000.7
2017-11-19T05:30:38.579Z,1000.62
2017-11-19T05:31:19.170Z,1000.66
2017-11-19T05:31:59.781Z,1000.64
2017-11-19T05:32:40.359Z,1000.62
2017-11-19T05:33:20.944Z,1000.59
2017-11-19T05:34:01.511Z,1000.73
2017-11-19T05:34:42.095Z,1000.6
2017-11-19T05:35:22.674Z,1000.68
2017-11-19T05:36:03.270Z,1000.63
2017-11-19T05:36:43.860Z,1000.65
2017-11-19T05:37:24.435Z,1000.68
2017-11-19T05:38:05.021Z,1000.67
2017-11-19T05:38:45.638Z,1000.64
2017-11-19T05:39:26.213Z,1000.65
2017-11-19T05:40:06.798Z,1000.64
2017-11-19T05:40:47.370Z,1000.65
2017-11-19T05:41:27.934Z,1000.54
2017-11-19T05:42:08.501Z,1000.69
2017-11-19T05:42:49.106Z,1000.69
2017-11-19T05:43:29.658Z,1000.62
2017-11-19T05:44:10.222Z,1000.68
2017-11-19T05:44:50.795Z,1000.65
2017-11-19T05:45:31.383Z,1000.74
2017-11-19T05:46:11.954Z,1000.65
2017-11-19T05:46:52.526Z,1000.72
2017-11-19T05:47:33.111Z,1000.71
2017-11-19T05:48:13.688Z,1000.74
2017-11-19T05:48:54.353Z,1000.7
2017-11-19T05:49:34.916Z,1000.74
2017-11-19T05:50:15.502Z,1000.66
2017-11-19T05:50:56.069Z,1000.68
2017-11-19T05:51:36.634Z,1000.65
2017-11-19T05:52:17.224Z,1000.62
2017-11-19T05:52:57.775Z,1000.6
2017-11-19T05:53:38.352Z,1000.66
2017-11-19T05:54:18.929Z,1000.72
2017-11-19T05:54:59.491Z,1000.69
2017-11-19T05:55:40.065Z,1000.66
2017-11-19T05:56:20.625Z,1000.76
2017-11-19T05:57:01.219Z,1000.74
2017-11-19T05:57:41.800Z,1000.74
2017-11-19T05:58:22.385Z,1000.79
2017-11-19T05:59:02.945Z,1000.72
2017-11-19T05:59:43.516Z,1000.72
2017-11-19T06:00:24.098Z,1000.84
2017-11-19T06:01:04.677Z,1000.83
2017-11-19T06:01:45.266Z,1000.72
2017-11-19T06:02:25.888Z,1000.83
2017-11-19T06:03:06.469Z,1000.88
2017-11-19T06:03:47.031Z,1000.8
2017-11-19T06:04:27.600Z,1000.87
2017-11-19T06:05:08.193Z,1000.84
2017-11-19T06:05:48.807Z,1000.87
2017-11-19T06:06:29.365Z,1000.79
2017-11-19T06:07:10.036Z,1000.83
2017-11-19T06:07:50.609Z,1000.73
2017-11-19T06:08:31.176Z,1000.7
2017-11-19T06:09:11.743Z,1000.76
2017-11-19T06:09:52.301Z,1000.8
2017-11-19T06:10:32.878Z,1000.72
2017-11-19T06:11:13.452Z,1000.72
2017-11-19T06:11:54.043Z,1000.74
2017-11-19T06:12:34.653Z,1000.75
2017-11-19T06:13:15.247Z,1000.71
2017-11-19T06:13:55.837Z,1000.69
2017-11-19T06:14:36.448Z,1000.77
2017-11-19T06:15:16.965Z,1000.77
2017-11-19T06:15:57.547Z,1000.78
2017-11-19T06:16:38.172Z,1000.74
2017-11-19T06:17:18.727Z,1000.65
2017-11-19T06:17:59.317Z,1000.72
2017-11-19T06:18:39.885Z,1000.72
2017-11-19T06:19:20.444Z,1000.65
2017-11-19T06:20:01.025Z,1000.67
2017-11-19T06:20:41.602Z,1000.74
2017-11-19T06:21:22.234Z,1000.65
2017-11-19T06:22:02.758Z,1000.72
2017-11-19T06:22:43.316Z,1000.63
2017-11-19T06:23:23.887Z,1000.68
2017-11-19T06:24:04.474Z,1000.65
2017-11-19T06:24:45.081Z,1000.58
2017-11-19T06:25:25.704Z,1000.69
2017-11-19T06:26:06.269Z,1000.75
2017-11-19T06:26:46.863Z,1000.7
2017-11-19T06:27:27.430Z,1000.68
2017-11-19T06:28:08.021Z,1000.72
2017-11-19T06:28:48.635Z,1000.74
2017-11-19T06:29:29.204Z,1000.7
2017-11-19T06:30:09.783Z,1000.72
2017-11-19T06:30:50.351Z,1000.69
2017-11-19T06:31:30.939Z,1000.59
2017-11-19T06:32:11.504Z,1000.62
2017-11-19T06:32:52.064Z,1000.63
2017-11-19T06:33:32.653Z,1000.62
2017-11-19T06:34:13.284Z,1000.66
2017-11-19T06:34:53.872Z,1000.54
2017-11-19T06:35:34.443Z,1000.54
2017-11-19T06:36:15.067Z,1000.5
2017-11-19T06:36:55.641Z,1000.57
2017-11-19T06:37:36.242Z,1000.51
2017-11-19T06:38:16.819Z,1000.49
2017-11-19T06:38:57.392Z,1000.56
2017-11-19T06:39:37.968Z,1000.54
2017-11-19T06:40:18.531Z,1000.55
2017-11-19T06:40:59.089Z,1000.6
2017-11-19T06:41:39.652Z,1000.58
2017-11-19T06:42:20.238Z,1000.57
2017-11-19T06:43:00.821Z,1000.64
2017-11-19T06:43:41.394Z,1000.55
2017-11-19T06:44:21.953Z,1000.62
2017-11-19T06:45:02.516Z,1000.54
2017-11-19T06:45:43.082Z,1000.58
2017-11-19T06:46:23.660Z,1000.56
2017-11-19T06:47:04.223Z,1000.6
2017-11-19T06:47:44.804Z,1000.53
2017-11-19T06:48:25.381Z,1000.57
2017-11-19T06:49:05.961Z,1000.65
2017-11-19T06:49:46.560Z,1000.62
2017-11-19T06:50:27.116Z,1000.61
2017-11-19T06:51:07.697Z,1000.58
2017-11-19T06:51:48.259Z,1000.56
2017-11-19T06:52:28.813Z,1000.64
2017-11-19T06:53:09.390Z,1000.63
2017-11-19T06:53:49.973Z,1000.64
2017-11-19T06:54:30.527Z,1000.62
2017-11-19T06:55:11.128Z,1000.63
2017-11-19T06:55:51.708Z,1000.64
2017-11-19T06:56:32.307Z,1000.61
2017-11-19T06:57:12.872Z,1000.57
2017-11-19T06:57:53.440Z,1000.64
2017-11-19T06:58:34.001Z,1000.61
2017-11-19T06:59:14.627Z,1000.57
2017-11-19T06:59:55.197Z,1000.65
2017-11-19T07:00:35.786Z,1000.63
2017-11-19T07:01:16.388Z,1000.62
2017-11-19T07:01:56.977Z,1000.64
2017-11-19T07:02:37.547Z,1000.63
2017-11-19T07:03:18.131Z,1000.59
2017-11-19T07:03:58.829Z,1000.63
2017-11-19T07:04:47.053Z,1000.62
2017-11-19T07:05:27.670Z,1000.63
2017-11-19T07:06:08.346Z,1000.59
2017-11-19T07:06:48.866Z,1000.64
2017-11-19T07:07:29.456Z,1000.58
2017-11-19T07:08:10.034Z,1000.6
2017-11-19T07:08:50.589Z,1000.57
2017-11-19T07:09:31.166Z,1000.52
2017-11-19T07:10:11.763Z,1000.53
2017-11-19T07:10:52.336Z,1000.53
2017-11-19T07:11:32.926Z,1000.55
2017-11-19T07:12:13.482Z,1000.6
2017-11-19T07:12:54.046Z,1000.61
2017-11-19T07:13:34.611Z,1000.62
2017-11-19T07:14:15.190Z,1000.67
2017-11-19T07:14:55.786Z,1000.73
2017-11-19T07:15:36.359Z,1000.63
2017-11-19T07:16:16.943Z,1000.61
2017-11-19T07:16:57.564Z,1000.58
2017-11-19T07:17:38.160Z,1000.6
2017-11-19T07:18:18.744Z,1000.58
2017-11-19T07:18:59.347Z,1000.62
2017-11-19T07:19:39.951Z,1000.59
2017-11-19T07:20:20.519Z,1000.6
2017-11-19T07:21:01.079Z,1000.63
2017-11-19T07:21:41.686Z,1000.52
2017-11-19T07:22:22.278Z,1000.57
2017-11-19T07:23:02.870Z,1000.54
2017-11-19T07:23:43.446Z,1000.54
2017-11-19T07:24:24.012Z,1000.59
2017-11-19T07:25:04.585Z,1000.57
2017-11-19T07:25:45.155Z,1000.55
2017-11-19T07:26:25.726Z,1000.55
2017-11-19T07:27:06.305Z,1000.59
2017-11-19T07:27:46.875Z,1000.57
2017-11-19T07:28:27.447Z,1000.53
2017-11-19T07:29:08.001Z,1000.54
2017-11-19T07:29:48.579Z,1000.45
2017-11-19T07:30:29.174Z,1000.5
2017-11-19T07:31:09.745Z,1000.49
2017-11-19T07:31:50.326Z,1000.54
2017-11-19T07:32:30.946Z,1000.52
2017-11-19T07:33:11.534Z,1000.5
2017-11-19T07:33:52.138Z,1000.48
2017-11-19T07:34:32.733Z,1000.5
2017-11-19T07:35:13.273Z,1000.42
2017-11-19T07:35:53.836Z,1000.46
2017-11-19T07:36:34.414Z,1000.44
2017-11-19T07:37:15.021Z,1000.43
2017-11-19T07:37:55.597Z,1000.43
2017-11-19T07:38:36.190Z,1000.41
2017-11-19T07:39:16.767Z,1000.44
2017-11-19T07:39:57.320Z,1000.27
2017-11-19T07:40:37.878Z,1000.36
2017-11-19T07:41:18.463Z,1000.39
2017-11-19T07:41:59.068Z,1000.44
2017-11-19T07:42:39.661Z,1000.35
2017-11-19T07:43:20.245Z,1000.28
2017-11-19T07:44:00.851Z,1000.3
2017-11-19T07:44:41.453Z,1000.35
2017-11-19T07:45:22.046Z,1000.33
2017-11-19T07:46:02.616Z,1000.38
2017-11-19T07:46:43.243Z,1000.34
2017-11-19T07:47:23.889Z,1000.42
2017-11-19T07:48:04.555Z,1000.35
2017-11-19T07:48:45.138Z,1000.33
2017-11-19T07:49:25.721Z,1000.32
2017-11-19T07:50:06.285Z,1000.35
2017-11-19T07:50:46.882Z,1000.26
2017-11-19T07:51:27.461Z,1000.35
2017-11-19T07:52:08.054Z,1000.29
2017-11-19T07:52:48.635Z,1000.16
2017-11-19T07:53:29.227Z,1000.27
2017-11-19T07:54:09.804Z,1000.32
2017-11-19T07:54:50.377Z,1000.3
2017-11-19T07:55:30.952Z,1000.27
2017-11-19T07:56:11.514Z,1000.31
2017-11-19T07:56:52.386Z,1000.23
2017-11-19T07:57:33.509Z,1000.25
2017-11-19T07:58:14.087Z,1000.17
2017-11-19T07:58:54.975Z,1000.16
2017-11-19T07:59:35.975Z,1000.15
2017-11-19T08:00:17.196Z,1000.12
2017-11-19T08:00:57.972Z,1000.13
2017-11-19T08:01:38.533Z,1000.15
2017-11-19T08:02:19.121Z,1000.14
2017-11-19T08:02:59.713Z,1000.14
2017-11-19T08:03:40.290Z,1000.13
2017-11-19T08:04:20.941Z,1000.14
2017-11-19T08:05:02.325Z,1000.19
2017-11-19T08:05:43.103Z,1000.22
2017-11-19T08:06:24.124Z,1000.26
2017-11-19T08:07:05.104Z,1000.2
2017-11-19T08:07:46.205Z,1000.21
2017-11-19T08:08:26.794Z,1000.25
2017-11-19T08:09:07.385Z,1000.33
2017-11-19T08:09:48.290Z,1000.22
2017-11-19T08:10:29.173Z,1000.31
2017-11-19T08:11:09.984Z,1000.19
2017-11-19T08:11:50.638Z,1000.31
2017-11-19T08:12:31.366Z,1000.29